Time;durP1;ratioP1;P1;durP2;ratioP2;P2;SDS_P1;SDS_P2;PMS_P1;PMS_P2;Temp;Humidity;BMP_temperature;BMP_pressure;BME280_temperature;BME280_humidity;BME280_pressure;Samples;Min_cycle;Max_cycle;Signal;HPM_P1;HPM_P2
2022/07/23 00:02:26;;;;;;;14.10;10.70;;;;;;;26.94;41.75;100038.20;107986;1264;223904;-72
2022/07/23 00:04:58;;;;;;;12.40;9.50;;;;;;;26.93;41.72;100038.86;107983;1264;138200;-73
2022/07/23 00:07:31;;;;;;;13.70;10.60;;;;;;;26.91;42.04;100038.30;108149;1263;109140;-73
2022/07/23 00:10:03;;;;;;;14.70;10.60;;;;;;;26.91;42.02;100039.40;108061;1264;139299;-74
2022/07/23 00:12:36;;;;;;;19.20;10.20;;;;;;;26.90;42.02;100040.04;108085;1264;95089;-73
2022/07/23 00:15:21;;;;;;;17.90;10.10;;;;;;;26.90;42.22;100041.34;108051;1263;94905;-72
2022/07/23 00:17:54;;;;;;;16.00;10.30;;;;;;;26.87;42.22;100040.70;108107;1264;111062;-72
2022/07/23 00:20:26;;;;;;;18.10;10.70;;;;;;;26.86;42.10;100036.20;108160;1264;106734;-73
2022/07/23 00:22:59;;;;;;;15.80;10.70;;;;;;;26.85;42.18;100041.52;107909;1264;138797;-73
2022/07/23 00:25:32;;;;;;;12.60;9.60;;;;;;;26.84;42.11;100041.29;108157;1264;94900;-74
2022/07/23 00:28:05;;;;;;;11.60;9.50;;;;;;;26.83;42.46;100039.38;107986;1264;137921;-72
2022/07/23 00:30:38;;;;;;;15.40;9.30;;;;;;;26.82;42.24;100038.80;108076;1264;110030;-72
2022/07/23 00:33:11;;;;;;;14.60;9.80;;;;;;;26.80;42.23;100041.70;107795;1264;137629;-73
2022/07/23 00:35:43;;;;;;;12.70;9.40;;;;;;;26.79;42.44;100042.13;107351;1264;108833;-73
2022/07/23 00:38:16;;;;;;;12.60;9.90;;;;;;;26.78;42.17;100043.27;108012;1264;140654;-74
2022/07/23 00:40:48;;;;;;;15.60;9.80;;;;;;;26.78;42.23;100042.36;107791;1264;96468;-74
2022/07/23 00:43:22;;;;;;;15.90;9.60;;;;;;;26.78;42.16;100041.52;106854;1264;110593;-74
2022/07/23 00:45:55;;;;;;;11.40;9.50;;;;;;;26.76;42.35;100041.16;107061;1264;139244;-73
2022/07/23 00:48:28;;;;;;;10.80;9.60;;;;;;;26.75;42.17;100036.65;107341;1264;109237;-73
2022/07/23 00:51:00;;;;;;;14.50;9.60;;;;;;;26.76;42.40;100039.17;108083;1264;137577;-74
2022/07/23 00:53:33;;;;;;;11.30;9.80;;;;;;;26.79;42.40;100039.05;108102;1264;95943;-73
2022/07/23 00:56:06;;;;;;;11.80;10.10;;;;;;;26.75;42.38;100039.10;108114;1264;137877;-73
2022/07/23 00:58:43;;;;;;;13.80;10.00;;;;;;;26.52;42.28;100039.35;107527;1264;108931;-73
2022/07/23 01:01:16;;;;;;;13.10;10.10;;;;;;;26.25;42.64;100040.48;106789;1264;108569;-72
2022/07/23 01:03:48;;;;;;;13.60;10.20;;;;;;;25.98;43.27;100038.77;107955;1264;137842;-73
2022/07/23 01:06:21;;;;;;;11.60;9.80;;;;;;;25.73;43.85;100037.29;108031;1264;94705;-73
2022/07/23 01:08:54;;;;;;;11.70;9.90;;;;;;;25.52;44.18;100039.61;108050;1263;139573;-73
2022/07/23 01:11:27;;;;;;;13.20;9.90;;;;;;;25.33;44.63;100041.38;108140;1264;107845;-73
2022/07/23 01:13:59;;;;;;;14.20;10.20;;;;;;;25.16;45.02;100046.66;108022;1264;138446;-73
2022/07/23 01:16:32;;;;;;;14.80;10.20;;;;;;;24.96;45.64;100051.58;108023;1264;95658;-73
2022/07/23 01:19:06;;;;;;;12.60;10.10;;;;;;;24.78;46.02;100052.59;108151;1263;94810;-73
2022/07/23 01:21:41;;;;;;;11.70;10.40;;;;;;;24.61;46.58;100052.20;107757;1264;137631;-73
2022/07/23 01:24:15;;;;;;;13.60;10.10;;;;;;;24.45;46.95;100052.98;108123;1264;108806;-73
2022/07/23 01:26:58;;;;;;;14.20;11.20;;;;;;;24.30;47.33;100052.45;107833;1265;138047;-73
2022/07/23 01:29:31;;;;;;;14.90;11.60;;;;;;;24.14;47.64;100056.91;107324;1264;96501;-73
2022/07/23 01:32:07;;;;;;;15.40;11.20;;;;;;;23.96;47.99;100059.38;107988;1264;138296;-72
2022/07/23 01:34:40;;;;;;;14.90;11.10;;;;;;;23.81;48.54;100056.67;108125;1264;110066;-73
2022/07/23 01:37:13;;;;;;;17.80;12.10;;;;;;;23.68;48.86;100054.14;107930;1264;109478;-73
2022/07/23 01:39:45;;;;;;;16.30;11.70;;;;;;;23.59;49.09;100060.53;107900;1264;138790;-73
2022/07/23 01:42:18;;;;;;;14.80;11.40;;;;;;;23.49;49.32;100059.91;108000;1262;95065;-73
2022/07/23 01:44:51;;;;;;;16.20;12.50;;;;;;;23.40;49.68;100061.61;108032;1264;138858;-73
2022/07/23 01:47:25;;;;;;;16.60;12.70;;;;;;;23.32;49.96;100063.71;108089;1262;111215;-73
2022/07/23 01:50:00;;;;;;;19.50;12.10;;;;;;;23.22;50.18;100063.38;108049;1264;138736;-73
2022/07/23 01:52:51;;;;;;;22.40;13.00;;;;;;;23.09;50.35;100066.00;107950;1264;108934;-73
2022/07/23 01:55:24;;;;;;;17.30;13.20;;;;;;;22.98;50.65;100061.93;107949;1264;94771;-73
2022/07/23 01:57:56;;;;;;;15.80;12.90;;;;;;;22.87;50.95;100060.39;107367;1264;137804;-75
2022/07/23 02:00:33;;;;;;;15.10;13.50;;;;;;;22.76;51.18;100057.60;108080;1264;110050;-73
2022/07/23 02:03:06;;;;;;;16.50;13.00;;;;;;;22.67;51.59;100054.02;107644;1264;138539;-74
2022/07/23 02:05:41;;;;;;;17.70;14.20;;;;;;;22.57;51.85;100054.27;106671;1264;108958;-75
2022/07/23 02:08:14;;;;;;;16.60;14.00;;;;;;;22.49;52.01;100053.77;106528;1264;139412;-73
2022/07/23 02:10:51;;;;;;;15.20;13.20;;;;;;;22.41;52.45;100050.52;106831;1264;96494;-75
2022/07/23 02:13:24;;;;;;;18.90;13.30;;;;;;;22.35;52.37;100047.00;106847;1264;111352;-75
2022/07/23 02:15:56;;;;;;;15.30;13.70;;;;;;;22.28;52.72;100046.45;106719;1264;137857;-72
2022/07/23 02:18:29;;;;;;;16.60;13.10;;;;;;;22.21;52.98;100046.29;106577;1264;108712;-73
2022/07/23 02:21:02;;;;;;;22.30;13.50;;;;;;;22.15;53.25;100044.17;107468;1263;139626;-74
2022/07/23 02:23:34;;;;;;;15.90;12.70;;;;;;;22.10;53.29;100046.73;106566;1264;96458;-74
2022/07/23 02:26:07;;;;;;;18.50;14.20;;;;;;;22.05;53.68;100046.25;106755;1264;138829;-72
2022/07/23 02:28:40;;;;;;;15.20;12.90;;;;;;;21.99;53.96;100047.59;106878;1264;108091;-73
2022/07/23 02:31:13;;;;;;;19.00;13.10;;;;;;;21.94;54.13;100046.11;106507;1265;109307;-73
2022/07/23 02:33:45;;;;;;;20.20;14.40;;;;;;;21.90;54.28;100042.87;108036;1264;138581;-73
2022/07/23 02:36:20;;;;;;;19.10;13.60;;;;;;;21.85;54.54;100041.52;107974;1263;94472;-73
2022/07/23 02:38:52;;;;;;;18.80;13.90;;;;;;;21.80;54.75;100040.33;108044;1263;138729;-74
2022/07/23 02:41:25;;;;;;;15.20;13.60;;;;;;;21.77;54.74;100036.36;107021;1264;109467;-73
2022/07/23 02:43:58;;;;;;;15.90;13.90;;;;;;;21.74;54.98;100031.86;106439;1264;139657;-73
2022/07/23 02:46:31;;;;;;;17.90;13.80;;;;;;;21.69;55.34;100031.31;107875;1263;94527;-72
2022/07/23 02:49:04;;;;;;;19.00;14.60;;;;;;;21.66;55.44;100029.60;108167;1261;95062;-73
2022/07/23 02:51:38;;;;;;;16.20;13.70;;;;;;;21.65;55.64;100027.24;107925;1264;139204;-73
2022/07/23 02:54:10;;;;;;;16.20;13.70;;;;;;;21.64;55.49;100026.45;107965;1264;108559;-73
2022/07/23 02:56:43;;;;;;;19.30;14.00;;;;;;;21.63;55.83;100026.67;108053;1261;139811;-74
2022/07/23 02:59:16;;;;;;;18.10;14.20;;;;;;;21.62;55.99;100029.04;106676;1264;96442;-73
2022/07/23 03:01:48;;;;;;;18.40;14.40;;;;;;;21.62;55.98;100023.08;108002;1264;138450;-72
2022/07/23 03:04:22;;;;;;;17.50;13.50;;;;;;;21.63;56.19;100024.93;107829;1264;111636;-73
2022/07/23 03:06:54;;;;;;;18.00;14.50;;;;;;;21.63;56.34;100029.18;106993;1264;108013;-73
2022/07/23 03:09:27;;;;;;;20.80;14.80;;;;;;;21.60;56.49;100022.17;106472;1263;138897;-73
2022/07/23 03:12:00;;;;;;;17.80;14.00;;;;;;;21.57;56.44;100020.11;106601;1264;96514;-73
2022/07/23 03:14:32;;;;;;;16.50;14.40;;;;;;;21.60;56.55;100028.23;108122;1264;138624;-74
2022/07/23 03:17:05;;;;;;;19.10;14.60;;;;;;;21.58;56.65;100026.39;108178;1264;111121;-74
2022/07/23 03:19:38;;;;;;;21.30;14.80;;;;;;;21.58;56.61;100026.58;108201;1264;109046;-74
2022/07/23 03:22:13;;;;;;;16.80;14.00;;;;;;;21.59;56.75;100031.08;108167;1263;107967;-74
2022/07/23 03:24:57;;;;;;;19.70;14.50;;;;;;;21.60;56.86;100027.64;108171;1264;96094;-74
2022/07/23 03:27:36;;;;;;;17.10;13.90;;;;;;;21.60;56.87;100027.98;107956;1263;139032;-74
2022/07/23 03:30:10;;;;;;;21.20;14.00;;;;;;;21.60;56.83;100032.81;108174;1263;110888;-74
2022/07/23 03:32:43;;;;;;;19.60;14.70;;;;;;;21.60;57.05;100031.39;107907;1264;138821;-74
2022/07/23 03:35:15;;;;;;;16.90;14.40;;;;;;;21.60;57.09;100032.98;108153;1263;107591;-73
2022/07/23 03:37:55;;;;;;;18.40;15.20;;;;;;;21.60;57.27;100028.92;107977;1264;139591;-74
2022/07/23 03:40:27;;;;;;;20.50;14.30;;;;;;;21.61;57.14;100036.43;108203;1263;94735;-73
2022/07/23 03:43:01;;;;;;;19.20;14.60;;;;;;;21.61;57.17;100033.27;108021;1264;109896;-74
2022/07/23 03:45:34;;;;;;;18.60;14.80;;;;;;;21.60;57.31;100039.72;108046;1264;138482;-74
2022/07/23 03:48:07;;;;;;;18.20;15.30;;;;;;;21.59;57.39;100045.24;108081;1263;108834;-74
2022/07/23 03:50:40;;;;;;;19.80;15.10;;;;;;;21.59;57.43;100045.10;107923;1264;138771;-74
2022/07/23 03:53:13;;;;;;;22.20;15.40;;;;;;;21.59;57.53;100051.23;108187;1264;94826;-74
2022/07/23 03:55:45;;;;;;;22.70;15.50;;;;;;;21.59;57.68;100054.48;108112;1263;139582;-73
2022/07/23 03:58:19;;;;;;;17.80;13.80;;;;;;;21.60;57.62;100046.77;108146;1264;108939;-74
2022/07/23 04:00:53;;;;;;;19.10;15.10;;;;;;;21.64;57.71;100054.53;108094;1264;107782;-74
2022/07/23 04:03:25;;;;;;;18.50;14.70;;;;;;;21.70;57.85;100047.37;107915;1264;138843;-74
2022/07/23 04:05:58;;;;;;;23.00;15.00;;;;;;;21.76;57.61;100046.08;107971;1264;94856;-73
2022/07/23 04:08:31;;;;;;;16.70;14.10;;;;;;;21.80;57.59;100046.58;107928;1264;138734;-73
2022/07/23 04:11:04;;;;;;;21.30;14.50;;;;;;;21.84;57.46;100050.13;108014;1264;107821;-73
2022/07/23 04:13:36;;;;;;;19.50;14.90;;;;;;;21.88;57.42;100048.38;108109;1264;109010;-73
2022/07/23 04:16:09;;;;;;;23.70;14.20;;;;;;;21.91;57.42;100048.48;108030;1264;94796;-74
2022/07/23 04:18:43;;;;;;;22.60;14.50;;;;;;;21.93;57.32;100049.52;108199;1264;95697;-72
2022/07/23 04:21:20;;;;;;;20.80;14.80;;;;;;;21.99;57.39;100043.92;107437;1264;138710;-72
2022/07/23 04:23:53;;;;;;;17.80;14.10;;;;;;;22.04;57.36;100040.34;106640;1264;108880;-72
2022/07/23 04:26:25;;;;;;;20.00;14.00;;;;;;;22.10;57.37;100044.48;106476;1264;138709;-72
2022/07/23 04:28:58;;;;;;;21.40;14.20;;;;;;;22.17;57.37;100041.76;107601;1263;96542;-73
2022/07/23 04:31:30;;;;;;;18.50;14.80;;;;;;;22.24;57.34;100045.00;108124;1264;94805;-74
2022/07/23 04:34:08;;;;;;;20.10;15.10;;;;;;;22.30;57.16;100047.34;108114;1264;111025;-73
2022/07/23 04:36:41;;;;;;;19.40;14.80;;;;;;;22.35;57.07;100045.16;108106;1264;107842;-73
2022/07/23 04:39:13;;;;;;;19.20;14.50;;;;;;;22.43;57.03;100047.17;108030;1263;138614;-73
2022/07/23 04:41:46;;;;;;;15.70;13.90;;;;;;;22.53;56.93;100044.02;107932;1264;94735;-74
2022/07/23 04:44:19;;;;;;;17.40;13.50;;;;;;;22.62;56.91;100040.74;107293;1263;138816;-73
2022/07/23 04:46:53;;;;;;;16.20;13.70;;;;;;;22.73;56.86;100041.72;107271;1263;111013;-73
2022/07/23 04:49:27;;;;;;;21.80;14.80;;;;;;;22.86;56.74;100038.16;108234;1263;110060;-73
2022/07/23 04:51:59;;;;;;;19.70;14.50;;;;;;;22.99;56.40;100034.75;107943;1263;138457;-73
2022/07/23 04:54:33;;;;;;;16.90;14.00;;;;;;;23.12;56.13;100033.40;107988;1262;95098;-74
2022/07/23 04:57:06;;;;;;;16.30;14.50;;;;;;;23.24;55.84;100034.81;107963;1264;138443;-74
2022/07/23 04:59:39;;;;;;;21.10;14.70;;;;;;;23.37;55.60;100040.38;108169;1264;111004;-74
2022/07/23 05:02:12;;;;;;;18.00;13.80;;;;;;;23.51;55.36;100043.25;108003;1263;139238;-74
2022/07/23 05:04:45;;;;;;;15.30;13.40;;;;;;;23.62;55.12;100039.86;107075;1263;108707;-72
2022/07/23 05:07:17;;;;;;;17.10;14.00;;;;;;;23.77;55.03;100042.73;108019;1263;94781;-73
2022/07/23 05:09:50;;;;;;;16.20;14.00;;;;;;;23.96;54.73;100049.86;106969;1264;138499;-73
2022/07/23 05:12:23;;;;;;;14.90;13.30;;;;;;;24.17;54.47;100051.27;106838;1264;110402;-72
2022/07/23 05:14:56;;;;;;;17.70;13.30;;;;;;;24.39;54.10;100046.08;108115;1263;137753;-74
2022/07/23 05:17:28;;;;;;;15.20;12.60;;;;;;;24.64;53.95;100051.33;108035;1264;108876;-73
2022/07/23 05:20:01;;;;;;;15.90;13.20;;;;;;;24.93;53.53;100046.36;107928;1264;139262;-73
2022/07/23 05:22:34;;;;;;;16.30;13.10;;;;;;;25.20;53.16;100041.45;108159;1263;96308;-73
2022/07/23 05:25:07;;;;;;;19.40;12.20;;;;;;;25.52;52.74;100038.31;107953;1264;110043;-74
2022/07/23 05:27:40;;;;;;;14.30;12.40;;;;;;;25.83;52.27;100037.63;107942;1264;137990;-73
2022/07/23 05:30:14;;;;;;;18.00;12.90;;;;;;;26.14;51.63;100039.79;108211;1263;108372;-73
2022/07/23 05:32:47;;;;;;;15.40;12.10;;;;;;;26.46;51.06;100039.66;107983;1263;137927;-74
2022/07/23 05:35:22;;;;;;;15.60;11.40;;;;;;;26.81;50.82;100042.56;108177;1264;95117;-74
2022/07/23 05:38:07;;;;;;;15.20;11.30;;;;;;;27.59;50.15;100036.39;107840;1264;138295;-73
2022/07/23 05:40:39;;;;;;;12.80;11.10;;;;;;;28.91;49.23;100027.24;108135;1263;108782;-73
2022/07/23 05:43:12;;;;;;;11.80;10.60;;;;;;;30.53;47.25;100025.77;108110;1264;108824;-74
2022/07/23 05:45:44;;;;;;;11.10;9.70;;;;;;;32.25;44.68;100016.92;107181;1264;138203;-74
2022/07/23 05:48:16;;;;;;;13.70;10.10;;;;;;;33.73;42.16;100012.45;106594;1264;96479;-74
2022/07/23 05:51:03;;;;;;;14.70;10.80;;;;;;;35.25;40.01;100013.91;106711;1264;137682;-75
2022/07/23 05:53:37;;;;;;;10.40;9.30;;;;;;;36.33;38.00;100014.18;108047;1263;108136;-75
2022/07/23 05:56:20;;;;;;;12.40;9.40;;;;;;;37.43;36.01;100007.91;107945;1264;138620;-74
2022/07/23 05:58:53;;;;;;;10.70;9.00;;;;;;;38.46;34.47;100007.08;107945;1264;94897;-74
2022/07/23 06:01:26;;;;;;;9.80;8.80;;;;;;;39.32;32.99;100013.48;108014;1263;95135;-75
2022/07/23 06:04:11;;;;;;;13.30;9.30;;;;;;;40.08;31.49;100006.50;107915;1264;110271;-75
2022/07/23 06:06:49;;;;;;;10.40;8.40;;;;;;;40.72;30.47;100010.38;107948;1264;108605;-75
2022/07/23 06:09:21;;;;;;;11.50;8.50;;;;;;;41.41;29.72;100015.77;108076;1263;137568;-75
2022/07/23 06:11:54;;;;;;;9.60;8.60;;;;;;;42.06;28.65;100013.19;108033;1262;94735;-76
2022/07/23 06:14:27;;;;;;;12.20;9.00;;;;;;;42.61;27.82;100012.08;107881;1264;137651;-76
2022/07/23 06:17:01;;;;;;;9.40;8.50;;;;;;;43.08;26.69;100008.59;108128;1264;111316;-76
2022/07/23 06:19:33;;;;;;;8.60;7.80;;;;;;;43.49;26.34;100009.28;106731;1265;108901;-77
2022/07/23 06:22:06;;;;;;;8.80;7.90;;;;;;;44.00;25.39;100007.33;106591;1264;137256;-76
2022/07/23 06:24:38;;;;;;;9.20;7.10;;;;;;;44.46;24.78;100009.82;106789;1264;96456;-77
2022/07/23 06:27:11;;;;;;;7.60;6.90;;;;;;;44.85;24.09;100011.33;106752;1264;137408;-77
2022/07/23 06:29:43;;;;;;;9.40;6.80;;;;;;;45.24;23.89;100008.23;106652;1264;110952;-77
2022/07/23 06:32:16;;;;;;;8.70;7.20;;;;;;;45.53;23.12;100014.02;106901;1264;138285;-77
2022/07/23 06:34:49;;;;;;;7.60;6.80;;;;;;;45.76;22.88;100008.77;108162;1263;108957;-77
2022/07/23 06:37:22;;;;;;;8.30;5.70;;;;;;;46.04;22.41;100010.64;107518;1264;96503;-76
2022/07/23 06:39:54;;;;;;;8.00;5.70;;;;;;;46.20;22.14;100010.12;106572;1264;137314;-77
2022/07/23 06:42:27;;;;;;;7.40;5.50;;;;;;;46.31;21.56;100005.20;107628;1264;112045;-77
2022/07/23 06:45:02;;;;;;;10.20;6.10;;;;;;;46.47;21.37;100010.81;106646;1264;137618;-77
2022/07/23 06:47:35;;;;;;;7.50;5.50;;;;;;;46.56;20.94;100011.33;106634;1264;109090;-77
2022/07/23 06:50:09;;;;;;;9.00;5.10;;;;;;;46.50;20.90;100015.59;106464;1264;139928;-77
2022/07/23 06:52:41;;;;;;;7.20;5.70;;;;;;;46.41;20.76;100009.31;108282;1263;95356;-77
2022/07/23 06:55:14;;;;;;;6.50;5.80;;;;;;;46.24;20.53;100009.80;107154;1263;110153;-77
2022/07/23 06:57:47;;;;;;;6.70;6.00;;;;;;;46.08;20.55;100006.26;106796;1264;137988;-77
2022/07/23 07:00:21;;;;;;;7.00;6.00;;;;;;;46.20;20.79;100003.55;106956;1264;107927;-77
2022/07/23 07:02:56;;;;;;;6.00;5.30;;;;;;;46.33;20.20;100004.86;108017;1263;137585;-78
2022/07/23 07:05:28;;;;;;;7.90;5.50;;;;;;;46.42;19.84;100002.30;108045;1263;95633;-78
2022/07/23 07:08:00;;;;;;;9.20;5.90;;;;;;;46.62;20.01;100000.48;108085;1264;137636;-77
2022/07/23 07:10:33;;;;;;;7.10;5.30;;;;;;;46.90;19.80;100002.20;108084;1263;109212;-78
2022/07/23 07:13:05;;;;;;;4.90;4.40;;;;;;;47.06;19.20;99995.94;108226;1264;108881;-78
2022/07/23 07:15:38;;;;;;;5.40;4.70;;;;;;;47.34;18.97;100000.64;107813;1263;137267;-78
2022/07/23 07:18:10;;;;;;;6.70;5.00;;;;;;;47.54;18.81;99996.04;107193;1264;96475;-77
2022/07/23 07:20:43;;;;;;;6.00;4.60;;;;;;;47.80;18.55;99997.56;106667;1264;139109;-78
2022/07/23 07:23:16;;;;;;;5.00;4.60;;;;;;;47.92;18.27;99993.45;107426;1264;107755;-73
2022/07/23 07:25:48;;;;;;;7.70;5.00;;;;;;;47.84;18.40;99993.19;106750;1264;137544;-74
2022/07/23 07:28:21;;;;;;;6.30;5.20;;;;;;;47.85;18.17;99985.61;106867;1264;96889;-78
2022/07/23 07:30:54;;;;;;;6.30;5.30;;;;;;;47.61;18.17;99983.56;106872;1264;96593;-77
2022/07/23 07:33:26;;;;;;;5.10;4.60;;;;;;;47.41;18.16;99981.27;108140;1263;138677;-78
2022/07/23 07:36:00;;;;;;;8.50;5.00;;;;;;;47.35;18.35;99984.11;107031;1263;108255;-76
2022/07/23 07:38:33;;;;;;;5.20;4.70;;;;;;;47.44;18.37;99983.04;107127;1264;137995;-81
2022/07/23 07:41:05;;;;;;;9.80;4.80;;;;;;;47.71;18.53;99981.13;107223;1264;96590;-77
2022/07/23 07:43:38;;;;;;;6.70;4.70;;;;;;;47.83;18.26;99984.89;106494;1264;96479;-77
2022/07/23 07:46:10;;;;;;;9.80;4.90;;;;;;;47.79;17.80;99985.41;106673;1264;110965;-78
2022/07/23 07:48:43;;;;;;;7.60;4.70;;;;;;;47.60;17.77;99992.59;106500;1264;108858;-79
2022/07/23 07:51:15;;;;;;;6.50;4.90;;;;;;;47.53;18.03;99989.14;106530;1264;137446;-79
2022/07/23 07:53:48;;;;;;;7.60;4.50;;;;;;;47.64;18.01;99993.85;106479;1264;96614;-74
2022/07/23 07:56:21;;;;;;;8.90;4.60;;;;;;;47.56;17.46;99992.98;106734;1264;137283;-76
2022/07/23 07:58:53;;;;;;;7.30;5.00;;;;;;;47.71;17.27;99990.24;107305;1264;111256;-78
2022/07/23 08:01:26;;;;;;;5.10;4.60;;;;;;;47.44;17.30;99997.33;106650;1263;107772;-79
2022/07/23 08:03:58;;;;;;;6.80;5.00;;;;;;;47.39;17.87;99998.14;106604;1263;137265;-78
2022/07/23 08:06:31;;;;;;;6.80;5.00;;;;;;;47.33;17.44;99997.11;106692;1264;96494;-80
2022/07/23 08:09:04;;;;;;;7.60;4.80;;;;;;;47.24;17.62;100001.28;106704;1264;137229;-76
2022/07/23 08:11:37;;;;;;;5.90;5.10;;;;;;;47.12;17.60;100000.60;106960;1264;110296;-76
2022/07/23 08:14:10;;;;;;;5.30;4.40;;;;;;;47.15;17.62;100003.60;108079;1262;138204;-76
2022/07/23 08:16:43;;;;;;;9.00;4.40;;;;;;;47.01;17.31;100003.67;108183;1264;108954;-76
2022/07/23 08:19:35;;;;;;;5.30;4.70;;;;;;;46.80;17.39;99997.80;108197;1263;96040;-77
2022/07/23 08:22:08;;;;;;;7.60;5.20;;;;;;;46.71;17.40;100000.21;108165;1264;94808;-76
2022/07/23 08:24:40;;;;;;;5.90;5.10;;;;;;;46.61;17.86;99993.59;108191;1263;110654;-76
2022/07/23 08:27:12;;;;;;;5.50;4.30;;;;;;;46.70;18.17;99997.64;108093;1263;137296;-76
2022/07/23 08:29:45;;;;;;;5.80;4.80;;;;;;;46.65;17.67;100002.33;108168;1264;108935;-76
2022/07/23 08:32:17;;;;;;;5.70;4.80;;;;;;;46.45;17.69;100002.20;108076;1263;138242;-76
2022/07/23 08:35:10;;;;;;;5.40;4.80;;;;;;;46.69;18.23;99994.33;108209;1264;94500;-76
2022/07/23 08:37:42;;;;;;;7.90;5.00;;;;;;;46.62;17.67;99995.90;108089;1264;137168;-75
2022/07/23 08:40:15;;;;;;;6.10;4.70;;;;;;;46.57;17.78;100001.42;107967;1263;109015;-76
2022/07/23 08:42:50;;;;;;;7.20;4.80;;;;;;;46.51;17.54;100000.16;106977;1264;108700;-76
2022/07/23 08:45:25;;;;;;;6.40;4.60;;;;;;;46.30;17.70;100004.56;108115;1264;138492;-77
2022/07/23 08:47:59;;;;;;;5.40;4.90;;;;;;;46.10;17.69;100004.04;107683;1263;96475;-76
2022/07/23 08:50:37;;;;;;;6.60;4.80;;;;;;;45.99;18.03;100000.64;106875;1264;137489;-75
2022/07/23 08:53:12;;;;;;;5.40;4.90;;;;;;;46.07;18.65;99997.89;108249;1263;108359;-76
2022/07/23 08:55:47;;;;;;;6.90;5.10;;;;;;;46.21;18.33;99995.77;108112;1263;137456;-76
2022/07/23 08:58:20;;;;;;;9.00;5.20;;;;;;;46.16;18.07;99995.05;107654;1264;97099;-76
2022/07/23 09:00:59;;;;;;;5.30;4.70;;;;;;;45.90;18.17;100000.61;106966;1264;96456;-76
2022/07/23 09:03:33;;;;;;;5.90;4.90;;;;;;;45.41;18.05;99995.80;106663;1264;137361;-76
2022/07/23 09:06:07;;;;;;;7.40;5.10;;;;;;;45.09;18.84;99993.02;107033;1264;109432;-76
2022/07/23 09:08:40;;;;;;;9.20;5.30;;;;;;;44.98;19.04;99997.31;108107;1264;138002;-76
2022/07/23 09:11:16;;;;;;;8.40;5.10;;;;;;;44.86;18.54;99991.45;107214;1264;96442;-76
2022/07/23 09:13:52;;;;;;;5.70;5.10;;;;;;;44.74;18.84;99990.55;108120;1262;137415;-76
2022/07/23 09:16:30;;;;;;;9.90;5.40;;;;;;;44.73;18.55;99985.01;107660;1264;111307;-76
2022/07/23 09:19:04;;;;;;;5.90;5.00;;;;;;;44.80;19.03;99988.72;106801;1264;108778;-76
2022/07/23 09:21:38;;;;;;;8.30;5.90;;;;;;;45.05;19.26;99991.83;106489;1264;137421;-76
2022/07/23 09:24:15;;;;;;;5.50;4.50;;;;;;;45.10;18.60;99984.76;106772;1264;96507;-76
2022/07/23 09:26:49;;;;;;;6.70;4.20;;;;;;;44.98;18.60;99986.73;106659;1264;137522;-76
2022/07/23 09:29:24;;;;;;;11.60;4.50;;;;;;;44.85;18.25;99989.27;106787;1263;110979;-75
2022/07/23 09:31:58;;;;;;;7.90;5.00;;;;;;;44.56;18.38;99988.23;106702;1264;137617;-76
2022/07/23 09:34:38;;;;;;;5.50;5.00;;;;;;;44.36;18.64;99984.04;106830;1264;107744;-76
2022/07/23 09:37:14;;;;;;;8.90;4.80;;;;;;;44.31;18.19;99982.02;108198;1264;94765;-77
2022/07/23 09:39:47;;;;;;;10.40;5.20;;;;;;;44.14;18.20;99981.83;108084;1263;138366;-76
2022/07/23 09:42:21;;;;;;;6.70;5.30;;;;;;;44.09;18.80;99978.52;108201;1263;111104;-76
2022/07/23 09:44:55;;;;;;;7.10;4.40;;;;;;;44.03;18.13;99976.42;108081;1263;137259;-76
2022/07/23 09:47:29;;;;;;;7.90;4.50;;;;;;;43.71;18.13;99974.00;107220;1263;108717;-76
2022/07/23 09:50:05;;;;;;;6.10;4.30;;;;;;;43.50;18.07;99968.02;106706;1264;137672;-75
2022/07/23 09:52:44;;;;;;;9.70;4.10;;;;;;;43.34;17.86;99964.99;106664;1264;96462;-75
2022/07/23 09:55:17;;;;;;;7.10;4.40;;;;;;;43.19;17.90;99962.79;106794;1264;111379;-76
2022/07/23 09:57:52;;;;;;;4.90;4.30;;;;;;;42.90;17.88;99961.27;106619;1264;137329;-75
2022/07/23 10:00:25;;;;;;;7.70;4.30;;;;;;;42.74;18.14;99963.65;108197;1264;108678;-76
2022/07/23 10:02:59;;;;;;;5.60;4.10;;;;;;;42.40;17.99;99960.88;108114;1264;137409;-77
2022/07/23 10:05:32;;;;;;;5.30;4.70;;;;;;;42.26;18.32;99959.98;107186;1264;96355;-76
2022/07/23 10:08:45;;;;;;;4.90;4.20;;;;;;;42.40;18.33;99956.61;106541;1264;137344;-76
2022/07/23 10:11:38;;;;;;;4.70;4.10;;;;;;;42.24;18.82;99953.02;106833;1264;108546;-76
2022/07/23 10:14:24;;;;;;;4.90;4.40;;;;;;;42.27;18.60;99955.81;108043;1264;137705;-77
2022/07/23 10:17:03;;;;;;;6.20;4.60;;;;;;;42.24;18.51;99955.96;106806;1267;96485;-76
2022/07/23 10:19:36;;;;;;;4.80;4.30;;;;;;;42.21;18.93;99953.92;108237;1263;94881;-77
2022/07/23 10:22:11;;;;;;;5.30;4.60;;;;;;;42.22;19.27;99948.44;108159;1264;111207;-77
2022/07/23 10:25:13;;;;;;;8.70;4.70;;;;;;;42.27;18.91;99953.63;108271;1263;108079;-77
2022/07/23 10:28:19;;;;;;;6.90;4.50;;;;;;;42.14;18.70;99949.09;107494;1264;138582;-77
2022/07/23 10:31:04;;;;;;;7.00;4.60;;;;;;;42.18;18.97;99950.38;106631;1264;96552;-78
2022/07/23 10:33:54;;;;;;;6.20;4.90;;;;;;;42.16;18.75;99947.51;106653;1264;137203;-77
2022/07/23 10:36:31;;;;;;;7.30;5.10;;;;;;;42.08;19.11;99943.91;106794;1264;111053;-76
2022/07/23 10:39:09;;;;;;;7.70;4.80;;;;;;;42.05;19.24;99948.90;106532;1264;137839;-76
2022/07/23 10:41:42;;;;;;;7.40;5.20;;;;;;;41.97;19.39;99948.27;106894;1264;107851;-77
2022/07/23 10:44:16;;;;;;;7.50;4.90;;;;;;;41.71;19.26;99947.30;106686;1264;138518;-77
2022/07/23 10:47:05;;;;;;;8.30;5.20;;;;;;;41.31;19.11;99951.40;107795;1263;95190;-77
2022/07/23 10:49:40;;;;;;;5.20;4.70;;;;;;;40.98;19.39;99947.35;108185;1264;111285;-77
2022/07/23 10:52:27;;;;;;;7.30;4.90;;;;;;;40.79;19.32;99953.56;106920;1264;109120;-77
2022/07/23 10:55:39;;;;;;;5.70;4.90;;;;;;;40.66;19.47;99950.76;106853;1264;109150;-77
2022/07/23 10:58:11;;;;;;;7.60;5.10;;;;;;;40.21;19.97;99955.19;106656;1264;138668;-76
2022/07/23 11:00:44;;;;;;;9.20;5.30;;;;;;;40.00;20.14;99949.45;107160;1264;96371;-77
2022/07/23 11:03:36;;;;;;;5.40;4.90;;;;;;;39.77;20.23;99946.98;106689;1264;137172;-77
2022/07/23 11:06:09;;;;;;;6.40;4.90;;;;;;;39.61;20.36;99946.55;106989;1264;108992;-77
2022/07/23 11:08:41;;;;;;;6.30;5.10;;;;;;;39.46;20.59;99941.23;106795;1264;137940;-77
2022/07/23 11:11:14;;;;;;;6.00;4.70;;;;;;;39.34;20.78;99940.16;107132;1264;96460;-77
2022/07/23 11:13:50;;;;;;;7.80;5.50;;;;;;;39.31;20.97;99939.09;106819;1264;137490;-75
2022/07/23 11:16:25;;;;;;;9.40;5.10;;;;;;;39.18;21.18;99943.45;106728;1264;109213;-77
2022/07/23 11:19:11;;;;;;;6.30;5.60;;;;;;;39.11;21.40;99945.05;106705;1264;108906;-76
2022/07/23 11:21:48;;;;;;;9.70;5.80;;;;;;;38.87;21.46;99943.04;106454;1264;137776;-76
2022/07/23 11:24:23;;;;;;;7.10;6.00;;;;;;;38.65;21.70;99946.77;106801;1264;96472;-76
2022/07/23 11:27:04;;;;;;;8.50;5.70;;;;;;;38.60;22.08;99945.88;108122;1264;136988;-77
2022/07/23 11:29:48;;;;;;;6.80;6.10;;;;;;;38.54;21.92;99947.15;108166;1264;112088;-77
2022/07/23 11:32:33;;;;;;;7.20;5.80;;;;;;;38.21;21.95;99942.90;108000;1264;138234;-77
2022/07/23 11:35:21;;;;;;;9.70;5.80;;;;;;;37.96;22.68;99944.55;107021;1264;108672;-77
2022/07/23 11:37:58;;;;;;;7.90;5.60;;;;;;;37.85;22.74;99945.40;106715;1264;137482;-76
2022/07/23 11:40:30;;;;;;;7.00;5.50;;;;;;;37.76;22.88;99941.02;106751;1264;96535;-76
2022/07/23 11:43:05;;;;;;;8.70;5.90;;;;;;;37.68;23.13;99933.90;106828;1264;110919;-77